Terminal Aerodrome Forecast
Issued by NWS Austin/San Antonio, TX

Home | Current Version | Previous Version | Text Only | Print | Product List | Glossary On
Versions: 1 2 3 4 5 6 7 8 9 10 11 12 13 14 15 16 17 18 19 20 21
000
FTUS44 KEWX 101100
TAFSAT
TAF
KSAT 101135Z 1012/1118 15005KT P6SM SCT008
     FM101230 15005KT 5SM BR BKN008
     FM101400 17010KT P6SM FEW030
     FM101900 16012G22KT P6SM BKN050 BKN120
     FM110900 15005KT 5SM BR BKN015
     FM111500 16012KT P6SM SCT050=

USA.gov is the U.S. government's official web portal to all federal, state and local government web resources and services.